TFM - Tactical Decision Aid (Experimental) INFO Settings
ID: Runway Winds: CIG/VIS Threshold: METAR Board: Map:

KGTR - Columbus-Golden Triangle Rgnl

Updated at: 0215 UTC 18 Jan 2018
Latest TAF at: 2322 UTC 17 Jan 2018

TAF Board

Time0156Z18/03Z18/04Z18/05Z18/06Z18/07Z18/08Z18/09Z18/10Z18/11Z18/12Z18/13Z18/14Z18/15Z
TypeOBSPRVLPRVLPRVLPRVLPRVLPRVLPRVLPRVLPRVLPRVLPRVLPRVLPRVL
VIS10>6>6>6>6>6>6>6>6>6>6>6>6>6
CIG----------------------------
CoverCLRSKCSKCSKCSKCSKCSKCSKCSKCSKCSKCSKCSKCSKC
FltCatVFRVFRVFRVFRVFRVFRVFRVFRVFRVFRVFRVFRVFRVFR
WX----------------------------
WDirVRB350350350350350350350350350350350350350
WSpd05555555555555
WGst----------------------------
TAF
KGTR 172322Z 1800/1824 35005KT P6SM SKC

METAR Board

Time17/15Z 17/16Z 17/17Z 17/18Z 17/19Z 17/20Z 17/21Z 17/22Z 17/23Z 18/00Z 18/01Z 18/02Z
VIS10 10 10 10 10 10 10 10 10 10 10
CIG-- -- -- -- -- -- -- -- -- -- --
CoverCLRCLRCLRCLRCLRCLRCLRCLRCLRCLRCLR
FltCatVFRVFRVFRVFRVFRVFRVFRVFRVFRVFRVFR
WX----------------------
WDir350330310330350360360103503300
WSpd9 7 6 11 8 13 13 10 6 4 0
WGst-- -- -- -- -- -- -- -- -- -- --
METAR
KGTR 171456Z 35009KT 10SM CLR M11/M15 A3071 RMK AO2 SLP407 T11061150 53015 FZRANO
KGTR 171556Z 33007KT 10SM CLR M09/M14 A3073 RMK AO2 SLP413 T10891139 FZRANO
KGTR 171656Z 31006KT 10SM CLR M07/M13 A3073 RMK AO2 SLP414 T10721128 FZRANO
KGTR 171756Z 33011KT 10SM CLR M05/M11 A3069 RMK AO2 SLP400 T10501111 11050 21144 58006 FZRANO
KGTR 171856Z 35008KT 10SM CLR M04/M11 A3066 RMK AO2 SLP388 T10391106 FZRANO
KGTR 171956Z 36013KT 10SM CLR M03/M11 A3064 RMK AO2 SLP383 T10331106 FZRANO
KGTR 172056Z 36013KT 10SM CLR M02/M10 A3064 RMK AO2 SLP381 T10221100 56019 FZRANO
KGTR 172156Z 01010KT 10SM CLR M03/M10 A3064 RMK AO2 SLP381 T10281100 FZRANO
KGTR 172256Z 35006KT 10SM CLR M04/M11 A3063 RMK AO2 SLP380 T10391106 FZRANO

KGTR 180056Z 33004KT 10SM CLR M06/M11 A3062 RMK AO2 SLP376 T10611111 FZRANO
KGTR 180156Z AUTO 00000KT 10SM CLR M07/M11 A3062 RMK AO2 SLP376 T10671111 FZRANO

TAF/METAR Board Legend

Potential Impact
  None Marginal Slight Moderate High
Visibility (sm) >5 3≤X≤5 2≤X<3 0.5≤X<2 <0.5
Ceiling (100 ft) >30 10≤X≤30 6≤X<10 2≤X<6 <2
Wind Speed (kt) <10 10≤X<20 20≤X<30 ≥30
Wind Gust (kt) <15 15≤X<25 25≤X<35 ≥35
Weather No Wx Reported VCTS -TS,-FZRA TS,FZRA +TS,+FZRA